Time;durP1;ratioP1;P1;durP2;ratioP2;P2;SDS_P1;SDS_P2;PMS_P1;PMS_P2;Temp;Humidity;BMP_temperature;BMP_pressure;BME280_temperature;BME280_humidity;BME280_pressure;Samples;Min_cycle;Max_cycle;Signal;HPM_P1;HPM_P2
2022/08/10 00:01:53;;;;;;;33.20;31.70;;;22.00;53.20;;;;;;5064919;28;20567;-69
2022/08/10 00:04:21;;;;;;;33.73;32.00;;;22.00;53.30;;;;;;5066357;28;20454;-69
2022/08/10 00:06:49;;;;;;;33.80;32.30;;;22.00;53.50;;;;;;5065671;28;20493;-69
2022/08/10 00:09:16;;;;;;;33.17;31.47;;;22.00;53.60;;;;;;5062055;28;20451;-70
2022/08/10 00:11:43;;;;;;;32.70;31.20;;;22.00;53.60;;;;;;5065184;28;20601;-69
2022/08/10 00:14:10;;;;;;;34.43;32.63;;;22.00;53.80;;;;;;5066661;28;21813;-69
2022/08/10 00:16:37;;;;;;;33.30;31.70;;;21.90;54.30;;;;;;5063592;28;20537;-69
2022/08/10 00:19:05;;;;;;;34.50;32.63;;;21.80;54.70;;;;;;5062046;28;20565;-70
2022/08/10 00:21:32;;;;;;;33.50;31.80;;;21.70;54.90;;;;;;5060898;28;20483;-69
2022/08/10 00:23:59;;;;;;;34.50;32.90;;;21.60;55.40;;;;;;5063632;28;20573;-69
2022/08/10 00:26:26;;;;;;;33.93;32.43;;;21.60;55.70;;;;;;5065537;28;20548;-69
2022/08/10 00:28:53;;;;;;;33.70;32.20;;;21.50;56.00;;;;;;5060222;28;20581;-66
2022/08/10 00:31:19;;;;;;;35.53;33.87;;;21.40;56.30;;;;;;5064177;28;20473;-66
2022/08/10 00:33:46;;;;;;;34.97;33.20;;;21.30;56.80;;;;;;5066444;28;20466;-66
2022/08/10 00:36:15;;;;;;;34.33;32.73;;;21.20;57.20;;;;;;5059651;28;20793;-66
2022/08/10 00:38:41;;;;;;;32.90;31.50;;;21.10;57.50;;;;;;5067107;28;20558;-66
2022/08/10 00:41:09;;;;;;;34.00;32.40;;;21.00;57.80;;;;;;5064274;28;20572;-66
2022/08/10 00:43:35;;;;;;;33.20;31.70;;;20.90;58.10;;;;;;5070173;28;20539;-66
2022/08/10 00:46:02;;;;;;;32.10;30.70;;;20.80;58.30;;;;;;5058927;28;20459;-66
2022/08/10 00:48:31;;;;;;;32.67;31.17;;;20.70;58.50;;;;;;5065255;28;21008;-66
2022/08/10 00:50:58;;;;;;;31.47;30.00;;;20.70;58.70;;;;;;5057798;28;20469;-66
2022/08/10 00:53:28;;;;;;;31.03;29.63;;;20.70;58.90;;;;;;5067348;28;20461;-66
2022/08/10 00:55:56;;;;;;;31.53;30.13;;;20.60;59.10;;;;;;5065159;28;20490;-69
2022/08/10 00:58:23;;;;;;;32.00;30.47;;;20.50;59.40;;;;;;5066903;28;20887;-69
2022/08/10 01:00:51;;;;;;;31.37;29.80;;;20.50;59.50;;;;;;5058847;28;20475;-69
2022/08/10 01:03:18;;;;;;;31.20;29.70;;;20.50;59.80;;;;;;5066340;28;20547;-66
2022/08/10 01:05:54;;;;;;;33.30;31.90;;;20.40;59.90;;;;;;5062625;28;20547;-66
2022/08/10 01:08:31;;;;;;;31.80;30.37;;;20.30;60.10;;;;;;5065207;28;20545;-66
2022/08/10 01:11:06;;;;;;;32.00;30.50;;;20.30;60.30;;;;;;5063671;28;21341;-66
2022/08/10 01:13:39;;;;;;;32.20;30.70;;;20.20;60.60;;;;;;5068266;28;20469;-66
2022/08/10 01:16:15;;;;;;;31.37;29.97;;;20.20;60.60;;;;;;5060534;28;20903;-66
2022/08/10 01:18:51;;;;;;;33.53;32.03;;;20.10;60.90;;;;;;5061560;28;20477;-66
2022/08/10 01:21:38;;;;;;;32.00;30.50;;;20.00;61.20;;;;;;5063000;28;20477;-66
2022/08/10 01:24:22;;;;;;;30.70;29.30;;;20.00;61.30;;;;;;5061363;28;20532;-66
2022/08/10 01:27:05;;;;;;;31.90;30.30;;;19.90;61.50;;;;;;5061859;28;20556;-65
2022/08/10 01:29:53;;;;;;;33.67;31.90;;;19.80;61.80;;;;;;5059722;28;20544;-66
2022/08/10 01:32:30;;;;;;;32.17;30.57;;;19.80;61.90;;;;;;5060299;28;20829;-67
2022/08/10 01:35:03;;;;;;;31.60;30.20;;;19.70;62.20;;;;;;5062638;28;20545;-68
2022/08/10 01:37:34;;;;;;;31.77;30.13;;;19.70;62.40;;;;;;5061520;28;20528;-68
2022/08/10 01:40:03;;;;;;;32.17;30.67;;;19.70;62.40;;;;;;5063549;28;20479;-68
2022/08/10 01:42:34;;;;;;;30.90;29.30;;;19.60;62.50;;;;;;5065378;28;20489;-68
2022/08/10 01:45:05;;;;;;;30.37;29.07;;;19.60;62.60;;;;;;5060075;28;20462;-68
2022/08/10 01:50:28;;;;;;;34.03;32.43;;;19.40;63.30;;;;;;5062067;28;20467;-68
2022/08/10 01:53:03;;;;;;;33.47;31.87;;;19.40;63.40;;;;;;5059514;28;20446;-68
2022/08/10 01:55:31;;;;;;;34.50;32.90;;;19.40;63.30;;;;;;5056371;28;20492;-68
2022/08/10 01:58:03;;;;;;;33.13;31.63;;;19.40;63.50;;;;;;5064076;28;20472;-67
2022/08/10 02:00:34;;;;;;;32.50;31.00;;;19.30;63.60;;;;;;5063125;28;20477;-70
2022/08/10 02:03:04;;;;;;;33.07;31.47;;;19.30;64.00;;;;;;5066540;28;20792;-68
2022/08/10 02:05:33;;;;;;;32.50;30.87;;;19.20;64.10;;;;;;5067842;28;20540;-70
2022/08/10 02:08:02;;;;;;;32.40;30.80;;;19.20;64.30;;;;;;5063785;28;20481;-68
2022/08/10 02:10:31;;;;;;;32.23;30.83;;;19.20;64.20;;;;;;5063819;28;20575;-70
2022/08/10 02:12:59;;;;;;;31.07;29.77;;;19.20;64.20;;;;;;5067551;28;20464;-68
2022/08/10 02:15:30;;;;;;;31.80;30.40;;;19.10;64.50;;;;;;5068466;28;20557;-67
2022/08/10 02:18:01;;;;;;;33.40;31.90;;;19.00;64.70;;;;;;5068103;28;20531;-68
2022/08/10 02:20:33;;;;;;;33.00;31.57;;;19.00;65.00;;;;;;5057079;28;20561;-68
2022/08/10 02:23:04;;;;;;;35.83;34.13;;;19.00;65.10;;;;;;5063668;28;20465;-68
2022/08/10 02:25:33;;;;;;;33.77;32.27;;;18.90;65.30;;;;;;5069074;28;20897;-68
2022/08/10 02:28:01;;;;;;;34.97;33.33;;;18.90;65.30;;;;;;5066621;28;20582;-68
2022/08/10 02:30:30;;;;;;;43.07;41.10;;;18.90;65.50;;;;;;5065198;28;20564;-69
2022/08/10 02:32:59;;;;;;;31.47;29.97;;;18.80;65.70;;;;;;5066279;28;20540;-68
2022/08/10 02:35:27;;;;;;;32.90;30.90;;;18.80;65.80;;;;;;5062449;28;20543;-68
2022/08/10 02:38:01;;;;;;;35.17;33.60;;;18.80;65.80;;;;;;5068041;28;20555;-68
2022/08/10 02:40:32;;;;;;;33.60;32.20;;;18.80;65.90;;;;;;5063218;28;20563;-68
2022/08/10 02:43:08;;;;;;;34.77;33.27;;;18.80;66.00;;;;;;5061157;28;20895;-68
2022/08/10 02:45:42;;;;;;;36.00;34.40;;;18.80;66.20;;;;;;5065711;28;20460;-68
2022/08/10 02:48:18;;;;;;;33.53;31.90;;;18.70;66.30;;;;;;5064512;28;20552;-68
2022/08/10 02:50:50;;;;;;;34.87;33.20;;;18.70;66.50;;;;;;5062394;28;20480;-68
2022/08/10 02:53:23;;;;;;;32.00;30.50;;;18.70;66.50;;;;;;5067073;28;20484;-68
2022/08/10 02:55:55;;;;;;;32.60;30.90;;;18.60;66.50;;;;;;5066915;28;20461;-68
2022/08/10 02:58:28;;;;;;;32.03;30.63;;;18.60;66.60;;;;;;5063967;28;20576;-68
2022/08/10 03:00:57;;;;;;;32.90;31.30;;;18.60;66.60;;;;;;5064696;28;20578;-68
2022/08/10 03:03:30;;;;;;;34.63;33.13;;;18.50;66.90;;;;;;5065476;28;20452;-67
2022/08/10 03:06:01;;;;;;;33.37;31.97;;;18.50;67.30;;;;;;5064403;28;20460;-69
2022/08/10 03:08:32;;;;;;;33.83;32.43;;;18.50;67.50;;;;;;5068782;28;20544;-70
2022/08/10 03:11:02;;;;;;;35.63;34.10;;;18.50;67.50;;;;;;5065470;28;20952;-68
2022/08/10 03:13:31;;;;;;;33.13;31.53;;;18.50;67.50;;;;;;5065480;28;20509;-69
2022/08/10 03:16:00;;;;;;;32.37;30.97;;;18.50;67.40;;;;;;5065633;28;20460;-68
2022/08/10 03:18:30;;;;;;;32.73;31.13;;;18.50;67.40;;;;;;5066281;28;20563;-68
2022/08/10 03:20:58;;;;;;;32.50;31.10;;;18.50;67.60;;;;;;5064695;28;20572;-68
2022/08/10 03:23:27;;;;;;;32.97;31.57;;;18.50;67.50;;;;;;5066822;28;20945;-69
2022/08/10 03:25:56;;;;;;;49.67;47.33;;;18.40;67.80;;;;;;5067253;28;21019;-68
2022/08/10 03:28:26;;;;;;;32.40;30.93;;;18.40;67.90;;;;;;5067504;28;20451;-68
2022/08/10 03:30:54;;;;;;;34.27;32.70;;;18.30;68.00;;;;;;5063437;28;20913;-68
2022/08/10 03:33:24;;;;;;;31.50;30.20;;;18.30;68.20;;;;;;5063715;28;20805;-68
2022/08/10 03:35:52;;;;;;;35.37;33.87;;;18.30;68.40;;;;;;5067184;28;20498;-68
2022/08/10 03:38:19;;;;;;;41.50;39.60;;;18.30;68.40;;;;;;5067321;28;20923;-68
2022/08/10 03:40:49;;;;;;;65.10;62.10;;;18.20;68.60;;;;;;5064891;28;20481;-68
2022/08/10 03:43:18;;;;;;;34.17;32.63;;;18.20;68.70;;;;;;5062848;28;20455;-66
2022/08/10 03:45:48;;;;;;;36.33;34.63;;;18.20;68.70;;;;;;5057246;28;20567;-66
2022/08/10 03:48:18;;;;;;;35.67;34.17;;;18.20;68.80;;;;;;5063575;28;20549;-65
2022/08/10 03:50:46;;;;;;;30.07;28.13;;;18.20;68.70;;;;;;5062749;28;20930;-66
2022/08/10 03:53:16;;;;;;;32.33;30.77;;;18.10;69.00;;;;;;5066500;28;20988;-66
2022/08/10 03:55:44;;;;;;;31.73;30.20;;;18.10;69.20;;;;;;5066991;28;20488;-66
2022/08/10 03:58:11;;;;;;;32.57;31.00;;;18.10;69.20;;;;;;5062237;28;20478;-66
2022/08/10 04:00:38;;;;;;;37.20;35.50;;;18.00;69.30;;;;;;5062969;28;20562;-66
2022/08/10 04:03:06;;;;;;;51.80;49.33;;;18.00;69.50;;;;;;5062552;28;20567;-66
2022/08/10 04:05:34;;;;;;;35.20;33.63;;;18.00;69.70;;;;;;5068085;28;20569;-66
2022/08/10 04:08:01;;;;;;;52.13;49.70;;;18.00;69.60;;;;;;5066248;28;20956;-66
2022/08/10 04:10:30;;;;;;;57.33;54.67;;;18.00;69.60;;;;;;5065274;28;20557;-66
2022/08/10 04:12:57;;;;;;;40.57;38.83;;;18.00;69.60;;;;;;5062926;28;20988;-66
2022/08/10 04:15:24;;;;;;;44.40;42.33;;;18.10;69.50;;;;;;5066488;28;20542;-66
2022/08/10 04:17:51;;;;;;;39.60;37.80;;;18.00;69.50;;;;;;5065343;28;20451;-66
2022/08/10 04:20:20;;;;;;;35.93;34.30;;;18.10;69.30;;;;;;5062293;28;20514;-65
2022/08/10 04:22:50;;;;;;;39.40;37.70;;;18.10;69.90;;;;;;5061733;28;20552;-68
2022/08/10 04:25:19;;;;;;;46.80;44.67;;;18.10;69.50;;;;;;5065810;28;20534;-68
2022/08/10 04:27:48;;;;;;;41.60;39.53;;;18.00;69.60;;;;;;5063082;28;20443;-68
2022/08/10 04:30:15;;;;;;;34.57;33.07;;;18.00;69.70;;;;;;5059415;28;20569;-70
2022/08/10 04:32:45;;;;;;;45.57;43.33;;;18.10;69.60;;;;;;5060897;28;20539;-68
2022/08/10 04:35:16;;;;;;;36.63;35.03;;;18.10;69.40;;;;;;5065492;28;20538;-69
2022/08/10 04:37:44;;;;;;;46.20;43.90;;;18.20;69.30;;;;;;5066070;28;20883;-67
2022/08/10 04:40:13;;;;;;;36.00;34.47;;;18.20;69.30;;;;;;5060294;28;20997;-67
2022/08/10 04:42:40;;;;;;;44.00;42.00;;;18.20;69.40;;;;;;5066708;28;20456;-67
2022/08/10 04:45:10;;;;;;;47.83;45.50;;;18.30;69.30;;;;;;5065984;28;21024;-67
2022/08/10 04:47:37;;;;;;;39.17;37.20;;;18.30;69.20;;;;;;5063786;28;20967;-68
2022/08/10 04:50:05;;;;;;;34.00;32.40;;;18.30;69.30;;;;;;5061807;28;20584;-68
2022/08/10 04:52:32;;;;;;;37.50;35.70;;;18.30;69.10;;;;;;5056406;28;20469;-68
2022/08/10 04:54:59;;;;;;;45.40;43.10;;;18.40;69.10;;;;;;5061609;28;22167;-69
2022/08/10 04:57:27;;;;;;;40.57;38.67;;;18.50;68.70;;;;;;5065159;28;20562;-66
2022/08/10 04:59:54;;;;;;;48.07;45.70;;;18.50;68.60;;;;;;5060873;28;21325;-74
2022/08/10 05:02:22;;;;;;;47.23;44.93;;;18.60;68.30;;;;;;5054653;28;20988;-68
2022/08/10 05:04:49;;;;;;;46.60;44.23;;;18.60;68.30;;;;;;5061330;28;20468;-66
2022/08/10 05:07:16;;;;;;;47.30;45.03;;;18.70;68.20;;;;;;5055290;28;20542;-66
2022/08/10 05:09:44;;;;;;;44.60;42.30;;;18.70;68.00;;;;;;5062433;28;20452;-66
2022/08/10 05:12:11;;;;;;;52.37;49.77;;;18.80;67.90;;;;;;5059450;28;21043;-66
2022/08/10 05:14:38;;;;;;;35.93;34.23;;;18.90;67.80;;;;;;5054469;28;20587;-66
2022/08/10 05:17:05;;;;;;;40.70;38.43;;;19.00;67.60;;;;;;5060660;28;20465;-69
2022/08/10 05:19:33;;;;;;;32.93;31.33;;;19.00;67.30;;;;;;5060408;28;20485;-71
2022/08/10 05:22:01;;;;;;;32.97;30.97;;;19.10;67.30;;;;;;5060931;28;20891;-68
2022/08/10 05:24:28;;;;;;;41.77;39.67;;;19.20;67.20;;;;;;5057642;28;20836;-66
2022/08/10 05:26:54;;;;;;;41.67;39.47;;;19.30;66.70;;;;;;5060705;28;20857;-66
2022/08/10 05:29:21;;;;;;;44.30;42.13;;;19.40;66.50;;;;;;5056794;28;20489;-66
2022/08/10 05:31:49;;;;;;;33.60;31.90;;;19.50;66.40;;;;;;5063645;28;20563;-66
2022/08/10 05:34:16;;;;;;;53.77;51.00;;;19.50;66.10;;;;;;5065586;28;20451;-66
2022/08/10 05:36:46;;;;;;;35.40;33.70;;;19.60;66.10;;;;;;5066188;28;20547;-69
2022/08/10 05:39:15;;;;;;;49.20;46.60;;;19.70;65.70;;;;;;5070696;28;21053;-69
2022/08/10 05:41:41;;;;;;;34.40;32.57;;;19.70;65.70;;;;;;5066894;28;20474;-67
2022/08/10 05:44:09;;;;;;;42.03;39.67;;;19.70;65.60;;;;;;5066419;28;20489;-68
2022/08/10 05:46:36;;;;;;;39.43;37.50;;;19.80;65.50;;;;;;5064741;28;21024;-67
2022/08/10 05:49:03;;;;;;;50.17;47.67;;;20.00;65.20;;;;;;5069271;28;20450;-71
2022/08/10 05:51:31;;;;;;;40.90;39.00;;;20.00;64.90;;;;;;5068487;28;20535;-67
2022/08/10 05:54:00;;;;;;;38.13;36.30;;;20.20;64.50;;;;;;5069959;28;20469;-69
2022/08/10 05:56:27;;;;;;;52.13;49.23;;;20.30;64.20;;;;;;5076356;28;20457;-68
2022/08/10 05:58:55;;;;;;;46.27;43.93;;;20.40;64.00;;;;;;5069231;28;20469;-68
2022/08/10 06:01:25;;;;;;;45.87;43.37;;;20.60;63.50;;;;;;5065277;28;20493;-68
2022/08/10 06:03:57;;;;;;;40.53;38.63;;;20.80;62.90;;;;;;5067065;28;20463;-69
2022/08/10 06:06:27;;;;;;;41.87;39.90;;;20.90;62.20;;;;;;5061238;28;20477;-69
2022/08/10 06:08:56;;;;;;;41.73;39.73;;;21.00;61.10;;;;;;5060748;28;20455;-69
2022/08/10 06:11:27;;;;;;;54.43;51.57;;;21.10;60.50;;;;;;5065018;28;20477;-66
2022/08/10 06:16:42;;;;;;;49.77;47.20;;;21.30;59.90;;;;;;5062672;28;20470;-66
2022/08/10 06:19:11;;;;;;;35.87;34.07;;;21.30;59.10;;;;;;5058249;28;20510;-66
2022/08/10 06:21:38;;;;;;;41.87;39.97;;;21.50;58.00;;;;;;5059936;28;20484;-67
2022/08/10 06:24:09;;;;;;;36.27;33.87;;;21.50;58.00;;;;;;5068747;28;20910;-66
2022/08/10 06:26:38;;;;;;;50.10;47.70;;;21.70;57.30;;;;;;5061093;28;20482;-66
2022/08/10 06:29:08;;;;;;;52.00;49.40;;;21.70;57.30;;;;;;5055586;28;20537;-67
2022/08/10 06:31:39;;;;;;;48.13;45.57;;;21.80;57.00;;;;;;5060813;28;20483;-67
2022/08/10 06:34:07;;;;;;;35.60;33.60;;;21.70;57.60;;;;;;5065825;28;20466;-66
2022/08/10 06:36:37;;;;;;;45.30;43.30;;;21.90;57.00;;;;;;5060054;28;20481;-67
2022/08/10 06:39:04;;;;;;;52.87;50.40;;;22.00;56.40;;;;;;5065686;28;20540;-68
2022/08/10 06:41:36;;;;;;;50.37;47.97;;;21.90;56.30;;;;;;5067062;28;20882;-68
2022/08/10 06:44:09;;;;;;;44.33;41.70;;;22.00;56.20;;;;;;5070567;28;20485;-68
2022/08/10 06:46:39;;;;;;;39.13;36.70;;;21.90;56.40;;;;;;5061715;28;20485;-67
2022/08/10 06:49:10;;;;;;;38.20;36.30;;;22.00;56.10;;;;;;5058806;28;20647;-67
2022/08/10 06:51:40;;;;;;;34.43;32.43;;;22.20;55.80;;;;;;5063545;28;20569;-73
2022/08/10 06:54:11;;;;;;;43.20;40.80;;;22.30;55.40;;;;;;5064452;28;20457;-71
2022/08/10 06:56:42;;;;;;;34.90;33.30;;;22.30;55.20;;;;;;5064396;28;20467;-73
2022/08/10 06:59:16;;;;;;;41.33;39.20;;;22.40;55.10;;;;;;5065287;28;20987;-69
2022/08/10 07:01:48;;;;;;;38.77;35.63;;;22.40;55.20;;;;;;5066276;28;20513;-69
2022/08/10 07:04:22;;;;;;;45.60;43.20;;;22.40;55.10;;;;;;5066239;28;20556;-70
2022/08/10 07:06:50;;;;;;;48.20;45.80;;;22.70;53.80;;;;;;5064457;28;20452;-67
2022/08/10 07:09:18;;;;;;;41.63;39.53;;;22.70;54.10;;;;;;5070564;28;20582;-67
2022/08/10 07:11:46;;;;;;;50.60;48.23;;;22.80;53.80;;;;;;5069957;28;20475;-68
2022/08/10 07:14:18;;;;;;;34.63;32.93;;;22.70;53.70;;;;;;5067665;28;20553;-67
2022/08/10 07:16:47;;;;;;;43.13;40.83;;;22.90;53.20;;;;;;5058227;28;21214;-67
2022/08/10 07:19:15;;;;;;;52.63;49.93;;;22.90;53.40;;;;;;5067876;28;20536;-67
2022/08/10 07:21:44;;;;;;;39.63;37.77;;;23.00;53.00;;;;;;5068199;28;20551;-69
2022/08/10 07:24:14;;;;;;;35.27;33.47;;;23.10;52.70;;;;;;5069760;28;20535;-69
2022/08/10 07:26:47;;;;;;;42.73;40.30;;;23.10;52.80;;;;;;5069210;28;20462;-69
2022/08/10 07:29:17;;;;;;;46.47;44.23;;;23.30;52.40;;;;;;5060926;28;20505;-69
2022/08/10 07:31:44;;;;;;;36.17;34.43;;;23.30;52.40;;;;;;5065146;28;20894;-71
2022/08/10 07:34:14;;;;;;;37.10;35.23;;;23.30;52.50;;;;;;5068499;28;20829;-69
2022/08/10 07:36:44;;;;;;;52.70;50.00;;;23.40;52.30;;;;;;5066959;28;20469;-73
2022/08/10 07:39:13;;;;;;;43.60;41.60;;;23.30;52.60;;;;;;5066569;28;20459;-70
2022/08/10 07:41:44;;;;;;;36.23;34.50;;;23.40;52.40;;;;;;5067584;28;21014;-69
2022/08/10 07:44:12;;;;;;;35.60;33.70;;;23.50;51.80;;;;;;5064409;28;20462;-66
2022/08/10 07:46:45;;;;;;;48.37;46.17;;;23.70;51.60;;;;;;5069979;28;20466;-66
2022/08/10 07:49:17;;;;;;;43.37;41.37;;;23.70;51.80;;;;;;5066117;28;20511;-66
2022/08/10 07:51:44;;;;;;;53.07;50.47;;;23.80;51.50;;;;;;5056568;28;20490;-66
2022/08/10 07:54:14;;;;;;;45.57;43.37;;;23.70;51.70;;;;;;5069082;28;20586;-66
2022/08/10 07:56:45;;;;;;;37.67;35.77;;;23.90;51.30;;;;;;5060535;28;20510;-68
2022/08/10 07:59:18;;;;;;;40.47;38.50;;;24.00;50.90;;;;;;5058485;28;20509;-68
2022/08/10 08:01:51;;;;;;;49.13;46.53;;;24.10;50.80;;;;;;5058468;28;20478;-65
2022/08/10 08:04:20;;;;;;;35.43;33.73;;;24.20;50.60;;;;;;5063992;28;20466;-66
2022/08/10 08:06:48;;;;;;;40.90;38.90;;;23.80;51.20;;;;;;5065328;28;20549;-66
2022/08/10 08:09:15;;;;;;;44.70;42.50;;;24.00;50.70;;;;;;5069053;28;20455;-66
2022/08/10 08:11:44;;;;;;;35.27;33.67;;;24.10;50.80;;;;;;5056407;28;20569;-66
2022/08/10 08:14:12;;;;;;;43.97;41.63;;;24.10;50.50;;;;;;5063981;28;20572;-67
2022/08/10 08:16:44;;;;;;;45.87;43.60;;;24.20;50.20;;;;;;5064350;28;20542;-69
2022/08/10 08:19:13;;;;;;;42.13;39.70;;;24.30;50.20;;;;;;5065462;28;20523;-69
2022/08/10 08:21:41;;;;;;;43.17;41.00;;;24.40;50.00;;;;;;5068627;28;20553;-67
2022/08/10 08:24:10;;;;;;;50.70;47.93;;;24.40;49.80;;;;;;5066644;28;20565;-68
2022/08/10 08:26:38;;;;;;;37.00;34.90;;;24.50;49.70;;;;;;5059460;28;20456;-66
2022/08/10 08:29:08;;;;;;;59.00;56.50;;;24.70;49.60;;;;;;5065951;28;20532;-66
2022/08/10 08:31:36;;;;;;;35.27;33.50;;;24.80;49.20;;;;;;5065971;28;20914;-66
2022/08/10 08:34:05;;;;;;;49.47;46.67;;;24.70;49.30;;;;;;5067869;28;20451;-66
2022/08/10 08:36:35;;;;;;;37.60;35.70;;;24.80;49.10;;;;;;5061683;28;20886;-66
2022/08/10 08:39:02;;;;;;;40.67;38.57;;;24.80;49.20;;;;;;5069749;28;20490;-66
2022/08/10 08:41:49;;;;;;;40.97;38.87;;;24.90;49.10;;;;;;5067935;28;20524;-66
2022/08/10 08:44:27;;;;;;;41.70;39.80;;;25.10;48.60;;;;;;5068310;28;20456;-66
2022/08/10 08:47:12;;;;;;;42.80;40.70;;;25.20;48.00;;;;;;5063666;28;20454;-66
2022/08/10 08:50:05;;;;;;;53.80;51.00;;;25.20;47.90;;;;;;5056409;28;20461;-65
2022/08/10 08:52:43;;;;;;;41.03;39.13;;;25.30;47.70;;;;;;5064663;28;20498;-66
2022/08/10 08:55:23;;;;;;;40.27;37.97;;;25.30;47.20;;;;;;5059609;28;20525;-68
2022/08/10 08:58:01;;;;;;;39.20;37.30;;;25.50;47.40;;;;;;5056191;28;20459;-69
2022/08/10 09:00:38;;;;;;;38.37;36.47;;;25.50;47.40;;;;;;5067622;28;20484;-68
2022/08/10 09:03:26;;;;;;;48.00;45.67;;;25.60;46.90;;;;;;5061240;28;20460;-68
2022/08/10 09:06:05;;;;;;;39.83;37.80;;;25.70;46.60;;;;;;5064037;28;20491;-68
2022/08/10 09:08:57;;;;;;;41.03;39.13;;;25.70;46.70;;;;;;5068211;28;21028;-68
2022/08/10 09:11:38;;;;;;;53.53;50.90;;;25.80;45.50;;;;;;5068563;28;20798;-67
2022/08/10 09:14:11;;;;;;;46.47;44.13;;;25.70;45.80;;;;;;5072145;28;20981;-68
2022/08/10 09:16:44;;;;;;;51.23;48.90;;;25.70;45.80;;;;;;5065974;28;20977;-69
2022/08/10 09:19:18;;;;;;;37.97;36.10;;;25.70;46.00;;;;;;5069516;28;21409;-69
2022/08/10 09:21:54;;;;;;;34.43;32.50;;;25.80;45.30;;;;;;5070035;28;20641;-69
2022/08/10 09:24:27;;;;;;;37.70;36.00;;;26.00;44.80;;;;;;5072419;28;20468;-69
2022/08/10 09:26:58;;;;;;;38.70;36.87;;;26.00;44.30;;;;;;5070334;28;20551;-67
2022/08/10 09:29:27;;;;;;;35.80;34.27;;;25.90;43.60;;;;;;5061748;28;20468;-67
2022/08/10 09:32:01;;;;;;;39.77;37.90;;;26.10;42.30;;;;;;5069197;28;20482;-67
2022/08/10 09:34:36;;;;;;;44.13;41.77;;;25.90;41.90;;;;;;5062337;28;21050;-68
2022/08/10 09:37:13;;;;;;;35.57;33.97;;;26.00;41.90;;;;;;5061001;28;20460;-69
2022/08/10 09:39:48;;;;;;;34.27;32.37;;;26.20;41.60;;;;;;5068139;28;20483;-72
2022/08/10 09:42:25;;;;;;;38.50;36.40;;;26.20;40.50;;;;;;5069633;28;20535;-70
2022/08/10 09:45:03;;;;;;;43.30;41.20;;;26.30;40.50;;;;;;5067935;28;20561;-70
2022/08/10 09:47:51;;;;;;;41.80;39.70;;;26.30;40.90;;;;;;5062955;28;20501;-72
2022/08/10 09:50:24;;;;;;;38.60;36.70;;;26.40;39.80;;;;;;5066195;28;20510;-71
2022/08/10 09:53:04;;;;;;;36.03;34.33;;;26.40;40.00;;;;;;5072459;28;20906;-72
2022/08/10 09:55:46;;;;;;;43.47;41.43;;;26.40;40.30;;;;;;5075131;28;20460;-72
2022/08/10 09:58:30;;;;;;;41.63;39.67;;;26.40;40.60;;;;;;5057726;28;20484;-75
2022/08/10 10:01:06;;;;;;;48.40;46.00;;;26.50;40.70;;;;;;5063824;28;20982;-73
2022/08/10 10:03:43;;;;;;;37.53;35.50;;;26.70;40.40;;;;;;5069829;28;20827;-72
2022/08/10 10:06:17;;;;;;;46.57;44.27;;;26.90;40.10;;;;;;5054096;28;20458;-71
2022/08/10 10:08:51;;;;;;;48.60;46.20;;;26.90;39.50;;;;;;5070553;28;20532;-74
2022/08/10 10:11:26;;;;;;;40.20;38.30;;;26.90;37.90;;;;;;5068978;28;20864;-73
2022/08/10 10:14:01;;;;;;;41.37;39.40;;;26.80;38.60;;;;;;5071583;28;20548;-74
2022/08/10 10:16:41;;;;;;;37.33;35.63;;;26.90;38.80;;;;;;5059447;28;20450;-74
2022/08/10 10:19:24;;;;;;;38.73;36.93;;;26.70;39.70;;;;;;5071335;28;20548;-73
2022/08/10 10:22:01;;;;;;;37.37;35.50;;;26.60;40.20;;;;;;5060159;28;20490;-71
2022/08/10 10:24:35;;;;;;;39.37;37.57;;;26.60;39.30;;;;;;5066760;28;20553;-71
2022/08/10 10:27:18;;;;;;;38.60;36.90;;;26.60;39.40;;;;;;5060251;28;20459;-71
2022/08/10 10:29:54;;;;;;;47.07;44.70;;;26.80;38.90;;;;;;5062528;28;20553;-71
2022/08/10 10:32:27;;;;;;;34.77;33.07;;;27.00;38.90;;;;;;5068310;28;20878;-69
2022/08/10 10:35:02;;;;;;;53.53;51.03;;;27.10;38.30;;;;;;5067392;28;20458;-68
2022/08/10 10:37:31;;;;;;;48.50;46.20;;;27.10;38.50;;;;;;5061986;28;20951;-68
2022/08/10 10:40:02;;;;;;;36.70;35.00;;;27.00;39.10;;;;;;5069031;28;20480;-72
2022/08/10 10:42:43;;;;;;;41.00;39.03;;;27.00;39.50;;;;;;5070862;28;20538;-73
2022/08/10 10:45:17;;;;;;;37.97;36.27;;;26.90;39.80;;;;;;5069577;28;20458;-71
2022/08/10 10:47:55;;;;;;;44.00;42.00;;;26.90;39.60;;;;;;5064649;28;20456;-72
2022/08/10 10:50:27;;;;;;;47.67;45.37;;;26.90;39.50;;;;;;5064300;28;20478;-71
2022/08/10 10:53:03;;;;;;;44.43;42.30;;;27.00;39.70;;;;;;5067746;28;20899;-71
2022/08/10 10:55:36;;;;;;;38.87;37.17;;;27.00;39.50;;;;;;5063181;28;20458;-72
2022/08/10 10:58:15;;;;;;;37.53;35.83;;;26.90;39.50;;;;;;5056897;28;20517;-75
2022/08/10 11:00:50;;;;;;;50.60;48.00;;;27.10;39.40;;;;;;5053900;28;20481;-73
2022/08/10 11:03:48;;;;;;;54.20;51.60;;;27.10;39.70;;;;;;5065389;28;20494;-72
2022/08/10 12:41:17;;;;;;;45.50;43.10;;;27.50;38.10;;;;;;5069339;27;20597;-71
2022/08/10 12:43:51;;;;;;;55.97;53.30;;;27.80;37.20;;;;;;5040211;28;20466;-69
2022/08/10 12:46:26;;;;;;;40.40;38.50;;;28.10;37.10;;;;;;5045028;28;20487;-74
2022/08/10 12:48:59;;;;;;;54.73;51.73;;;28.20;36.60;;;;;;5035678;28;20477;-70
2022/08/10 12:51:29;;;;;;;44.70;42.27;;;28.50;36.50;;;;;;5040304;28;20487;-70
2022/08/10 12:54:02;;;;;;;43.57;41.50;;;28.60;36.20;;;;;;5031780;28;20918;-70
2022/08/10 12:56:34;;;;;;;46.37;44.37;;;28.80;36.10;;;;;;5039357;28;20466;-74
2022/08/10 12:59:05;;;;;;;55.10;52.43;;;28.70;36.10;;;;;;5037529;28;21042;-72
2022/08/10 13:01:35;;;;;;;49.87;47.57;;;28.60;36.40;;;;;;5039394;28;20906;-72
2022/08/10 13:04:06;;;;;;;44.77;42.77;;;28.70;36.40;;;;;;5043756;28;20710;-72
2022/08/10 13:06:34;;;;;;;58.63;55.63;;;28.90;35.80;;;;;;5041467;28;21047;-70
2022/08/10 13:09:11;;;;;;;53.17;50.67;;;29.00;36.00;;;;;;5042992;28;20451;-69
2022/08/10 13:11:43;;;;;;;50.53;48.17;;;29.20;35.40;;;;;;5038819;28;20912;-74
2022/08/10 13:14:15;;;;;;;38.57;36.77;;;29.10;35.50;;;;;;5043191;28;20459;-70
2022/08/10 13:16:43;;;;;;;53.57;50.60;;;28.90;35.60;;;;;;5031045;28;20463;-69
2022/08/10 13:19:14;;;;;;;38.10;36.30;;;28.80;35.60;;;;;;5038325;28;20476;-68
2022/08/10 13:21:42;;;;;;;38.30;36.50;;;28.90;35.80;;;;;;5041512;28;20507;-68
2022/08/10 13:24:12;;;;;;;58.77;55.80;;;29.10;35.40;;;;;;5043226;28;20492;-68
2022/08/10 13:26:47;;;;;;;50.83;48.27;;;29.30;35.40;;;;;;5037473;28;20482;-68
2022/08/10 13:29:17;;;;;;;57.83;55.07;;;29.40;35.10;;;;;;5035439;28;20458;-70
2022/08/10 13:31:46;;;;;;;51.17;48.77;;;29.30;35.20;;;;;;5033789;28;20468;-70
2022/08/10 13:34:20;;;;;;;43.13;41.13;;;29.30;35.10;;;;;;5035687;28;20455;-70
2022/08/10 13:36:50;;;;;;;40.23;38.33;;;29.60;35.00;;;;;;5040836;28;20459;-67
2022/08/10 13:39:22;;;;;;;51.63;49.23;;;29.90;34.30;;;;;;5040483;28;21006;-68
2022/08/10 13:41:53;;;;;;;56.53;53.93;;;29.90;34.00;;;;;;5037105;28;20558;-68
2022/08/10 13:44:29;;;;;;;52.90;50.10;;;29.70;34.00;;;;;;5043488;28;20456;-68
2022/08/10 13:46:57;;;;;;;56.00;53.37;;;29.70;34.40;;;;;;5042702;28;20495;-68
2022/08/10 13:49:27;;;;;;;41.47;39.37;;;30.00;34.30;;;;;;5051826;28;20456;-68
2022/08/10 13:51:56;;;;;;;57.10;54.33;;;30.00;33.70;;;;;;5034053;28;20480;-68
2022/08/10 13:54:25;;;;;;;38.90;37.10;;;29.80;34.20;;;;;;5030140;28;20864;-68
2022/08/10 13:56:55;;;;;;;44.30;42.20;;;29.80;34.00;;;;;;5023528;28;20748;-68
2022/08/10 13:59:27;;;;;;;43.40;41.40;;;29.90;33.80;;;;;;5028689;28;20471;-70
2022/08/10 14:01:54;;;;;;;51.17;48.50;;;29.70;33.70;;;;;;5024366;28;20535;-69
2022/08/10 14:04:22;;;;;;;39.93;38.03;;;29.60;33.80;;;;;;5030128;28;20539;-70
2022/08/10 14:06:52;;;;;;;59.50;56.73;;;29.60;34.00;;;;;;5017343;28;20459;-71
2022/08/10 14:09:25;;;;;;;52.80;50.30;;;29.50;34.10;;;;;;5025989;28;20548;-70
2022/08/10 14:11:55;;;;;;;47.93;45.73;;;29.50;33.90;;;;;;5019722;28;20817;-70
2022/08/10 14:14:24;;;;;;;49.67;47.50;;;29.60;33.50;;;;;;5030940;28;20459;-69
2022/08/10 14:16:52;;;;;;;42.03;40.13;;;29.70;33.10;;;;;;5027092;28;20484;-70
2022/08/10 14:19:27;;;;;;;37.90;36.20;;;29.60;33.30;;;;;;5023052;28;20449;-70
2022/08/10 14:21:54;;;;;;;38.60;36.77;;;29.30;33.50;;;;;;5020784;28;20487;-67
2022/08/10 14:24:23;;;;;;;41.13;39.13;;;29.30;33.50;;;;;;5022423;28;20453;-67
2022/08/10 14:26:56;;;;;;;59.63;56.90;;;29.40;33.60;;;;;;5021130;28;20464;-67
2022/08/10 14:29:28;;;;;;;53.50;51.07;;;29.70;33.80;;;;;;5022185;28;20972;-67